Time;durP1;ratioP1;P1;durP2;ratioP2;P2;SDS_P1;SDS_P2;PMS_P1;PMS_P2;Temp;Humidity;BMP_temperature;BMP_pressure;BME280_temperature;BME280_humidity;BME280_pressure;Samples;Min_cycle;Max_cycle;Signal;HPM_P1;HPM_P2
2022/01/05 00:01:50;;;;;;;;;2.67;1.33;;;;;7.84;55.80;100315.88;5000136;28;45420;-68
2022/01/05 00:04:19;;;;;;;;;1.67;1.00;;;;;7.96;55.44;100343.03;5000018;28;45647;-68
2022/01/05 00:06:48;;;;;;;;;4.33;2.00;;;;;7.87;55.05;100333.28;4999894;28;46855;-68
2022/01/05 00:09:13;;;;;;;;;3.00;1.67;;;;;7.79;55.44;100346.34;4982287;28;45372;-69
2022/01/05 00:11:39;;;;;;;;;4.33;3.00;;;;;7.73;55.08;100362.75;4981977;28;45465;-67
2022/01/05 00:14:04;;;;;;;;;1.67;1.67;;;;;7.66;55.39;100357.19;5000651;28;45313;-67
2022/01/05 00:16:29;;;;;;;;;2.33;2.33;;;;;7.53;54.88;100353.94;5000915;28;46255;-69
2022/01/05 00:18:55;;;;;;;;;0.67;0.00;;;;;7.44;54.99;100362.69;5011315;28;45306;-69
2022/01/05 00:21:20;;;;;;;;;2.00;2.00;;;;;7.47;55.35;100357.94;5018081;28;45799;-68
2022/01/05 00:23:46;;;;;;;;;5.67;2.67;;;;;7.44;54.94;100350.28;5019636;28;45523;-67
2022/01/05 00:26:11;;;;;;;;;0.00;0.00;;;;;7.52;54.70;100362.84;5019409;28;45534;-67
2022/01/05 00:28:37;;;;;;;;;3.00;3.00;;;;;7.46;55.07;100358.94;5017822;28;45370;-69
2022/01/05 00:31:02;;;;;;;;;1.33;0.00;;;;;7.30;54.51;100358.56;5019479;28;45333;-69
2022/01/05 00:33:28;;;;;;;;;5.33;2.33;;;;;7.31;55.11;100347.03;5019437;28;45280;-67
2022/01/05 00:35:54;;;;;;;;;3.33;3.00;;;;;7.29;54.29;100349.81;5019067;28;46639;-68
2022/01/05 00:38:19;;;;;;;;;2.00;2.00;;;;;7.26;54.67;100342.13;5018948;28;45478;-66
2022/01/05 00:40:45;;;;;;;;;2.00;2.00;;;;;7.39;54.76;100360.41;5019057;28;45190;-67
2022/01/05 00:43:10;;;;;;;;;4.00;3.00;;;;;7.19;53.89;100334.84;5001634;28;45629;-67
2022/01/05 00:45:35;;;;;;;;;4.00;4.00;;;;;7.39;53.59;100371.00;5019188;28;45464;-68
2022/01/05 00:48:01;;;;;;;;;3.33;2.00;;;;;7.27;53.79;100366.78;4996429;28;45407;-69
2022/01/05 00:50:26;;;;;;;;;2.00;2.00;;;;;7.27;54.14;100380.00;4999284;28;45584;-67
2022/01/05 00:52:52;;;;;;;;;2.00;2.00;;;;;7.33;54.36;100379.47;4999098;28;45247;-68
2022/01/05 00:55:18;;;;;;;;;3.00;1.00;;;;;7.34;54.51;100389.06;4998995;28;46090;-69
2022/01/05 00:57:45;;;;;;;;;2.00;2.00;;;;;7.11;54.54;100366.41;4999010;28;45483;-67
2022/01/05 01:00:11;;;;;;;;;3.00;2.00;;;;;7.26;54.49;100383.59;4981877;28;45249;-69
2022/01/05 01:02:36;;;;;;;;;4.00;3.00;;;;;7.33;54.29;100398.81;4999304;28;45515;-68
2022/01/05 01:05:02;;;;;;;;;3.00;1.33;;;;;7.25;53.63;100401.28;4998828;28;46427;-67
2022/01/05 01:07:28;;;;;;;;;3.67;3.67;;;;;7.21;54.17;100393.75;4999060;28;45350;-69
2022/01/05 01:09:53;;;;;;;;;6.00;2.00;;;;;7.26;53.88;100399.47;4998687;28;45533;-68
2022/01/05 01:12:18;;;;;;;;;5.00;3.67;;;;;6.85;54.67;100345.69;4999102;28;45215;-68
2022/01/05 01:14:44;;;;;;;;;3.00;2.00;;;;;7.11;55.08;100387.56;4998688;28;46815;-68
2022/01/05 01:17:09;;;;;;;;;4.00;3.00;;;;;7.23;54.78;100407.66;4998559;28;45396;-68
2022/01/05 01:19:35;;;;;;;;;1.00;1.00;;;;;7.13;55.15;100390.91;4999120;28;45804;-69
2022/01/05 01:22:00;;;;;;;;;2.00;2.00;;;;;7.37;55.23;100419.69;4998863;28;45175;-68
2022/01/05 01:24:26;;;;;;;;;4.67;3.00;;;;;7.25;54.41;100403.94;4980720;28;48392;-68
2022/01/05 01:26:52;;;;;;;;;1.67;1.67;;;;;7.27;54.70;100432.88;4998694;28;45537;-69
2022/01/05 01:29:17;;;;;;;;;5.00;2.33;;;;;7.03;54.63;100400.59;4998535;28;45322;-67
2022/01/05 01:31:43;;;;;;;;;2.33;1.00;;;;;7.20;55.20;100434.34;4980940;28;45715;-68
2022/01/05 01:34:08;;;;;;;;;3.00;3.00;;;;;7.18;54.73;100433.63;4998162;28;46184;-68
2022/01/05 01:36:33;;;;;;;;;3.33;2.00;;;;;7.16;54.44;100446.16;4998324;28;45476;-68
2022/01/05 01:38:59;;;;;;;;;3.00;2.00;;;;;7.11;55.43;100443.91;4998356;28;45662;-69
2022/01/05 01:41:25;;;;;;;;;6.00;2.00;;;;;7.03;54.77;100451.66;4998611;28;45519;-69
2022/01/05 01:43:50;;;;;;;;;2.00;2.00;;;;;6.98;55.00;100453.81;4998065;28;45527;-69
2022/01/05 01:46:16;;;;;;;;;1.00;1.00;;;;;6.91;55.18;100437.66;4998495;28;45283;-67
2022/01/05 01:48:42;;;;;;;;;3.33;2.00;;;;;7.09;55.53;100463.50;4997104;28;45402;-68
2022/01/05 01:51:07;;;;;;;;;3.33;2.00;;;;;6.92;55.22;100452.53;4997540;28;45457;-69
2022/01/05 01:53:33;;;;;;;;;3.00;1.33;;;;;7.01;54.75;100465.00;4996638;28;47854;-68
2022/01/05 01:56:02;;;;;;;;;1.67;1.67;;;;;6.81;54.37;100438.53;4998280;28;45279;-68
2022/01/05 01:58:34;;;;;;;;;3.00;2.00;;;;;6.70;54.66;100428.84;4980622;28;45350;-69
2022/01/05 02:00:59;;;;;;;;;1.00;1.00;;;;;6.87;54.67;100460.00;4998518;28;45468;-69
2022/01/05 02:03:25;;;;;;;;;5.00;3.00;;;;;7.03;55.19;100483.38;4997954;28;46586;-67
2022/01/05 02:05:50;;;;;;;;;1.00;1.00;;;;;7.11;54.40;100485.38;4998121;28;45421;-68
2022/01/05 02:08:16;;;;;;;;;1.67;1.67;;;;;7.12;54.69;100494.97;4998153;28;45462;-68
2022/01/05 02:10:44;;;;;;;;;2.33;2.00;;;;;6.98;54.69;100490.81;4998399;28;45223;-68
2022/01/05 02:13:10;;;;;;;;;4.00;3.00;;;;;7.03;55.19;100509.81;4980156;28;47858;-68
2022/01/05 02:15:35;;;;;;;;;3.00;2.00;;;;;7.05;54.78;100501.75;4997610;28;45472;-68
2022/01/05 02:18:20;;;;;;;;;3.00;2.00;;;;;7.09;53.89;100519.03;4997756;28;45437;-68
2022/01/05 02:20:46;;;;;;;;;7.33;3.67;;;;;7.03;54.08;100509.81;4998007;28;45609;-68
2022/01/05 02:23:12;;;;;;;;;2.33;2.33;;;;;7.06;54.14;100524.56;4997908;28;45682;-68
2022/01/05 02:25:37;;;;;;;;;3.00;1.00;;;;;7.05;54.03;100523.72;4998670;28;45428;-68
2022/01/05 02:28:03;;;;;;;;;2.00;2.00;;;;;7.05;54.53;100522.88;4980841;28;45298;-68
2022/01/05 02:30:30;;;;;;;;;2.67;1.00;;;;;7.05;54.24;100523.72;4998079;28;45429;-68
2022/01/05 02:32:56;;;;;;;;;4.33;2.00;;;;;6.99;53.77;100514.47;4997811;28;46373;-67
2022/01/05 02:35:22;;;;;;;;;2.00;2.00;;;;;7.10;54.38;100521.53;4997837;28;45237;-68
2022/01/05 02:37:50;;;;;;;;;1.67;1.67;;;;;7.15;53.92;100523.78;4997919;28;45484;-68
2022/01/05 02:40:20;;;;;;;;;3.67;1.00;;;;;7.15;53.72;100529.06;4997906;28;45527;-67
2022/01/05 02:42:45;;;;;;;;;2.00;2.00;;;;;7.16;53.96;100528.09;4996097;28;47469;-68
2022/01/05 02:45:13;;;;;;;;;1.00;1.00;;;;;7.17;54.35;100527.13;4997550;28;45525;-68
2022/01/05 02:47:39;;;;;;;;;1.00;1.00;;;;;7.19;54.12;100535.78;4998533;28;45508;-68
2022/01/05 02:50:07;;;;;;;;;3.00;2.00;;;;;7.18;53.71;100531.47;4998247;28;45632;-67
2022/01/05 02:52:34;;;;;;;;;1.67;1.00;;;;;7.15;54.55;100531.72;5017155;28;47946;-67
2022/01/05 02:55:00;;;;;;;;;1.67;0.67;;;;;6.73;53.84;100457.66;5016994;28;45472;-68
2022/01/05 02:57:26;;;;;;;;;4.67;3.00;;;;;7.13;54.33;100531.00;5000244;28;45352;-68
2022/01/05 02:59:53;;;;;;;;;1.00;1.00;;;;;7.08;53.97;100522.63;5017881;28;45460;-69
2022/01/05 03:02:18;;;;;;;;;4.67;2.00;;;;;7.11;54.68;100540.88;4982933;28;48810;-68
2022/01/05 03:04:44;;;;;;;;;1.00;1.00;;;;;7.08;54.40;100538.50;4999641;28;45545;-69
2022/01/05 03:07:09;;;;;;;;;3.00;3.00;;;;;7.10;54.70;100539.19;5016022;28;45322;-68
2022/01/05 03:09:34;;;;;;;;;2.67;1.00;;;;;6.98;54.74;100518.09;4999723;28;45359;-68
2022/01/05 03:12:00;;;;;;;;;5.00;3.00;;;;;7.07;54.12;100545.59;5017388;28;46347;-68
2022/01/05 03:14:26;;;;;;;;;3.00;2.00;;;;;7.04;54.09;100558.22;5015471;28;45868;-67
2022/01/05 03:16:51;;;;;;;;;3.33;1.33;;;;;7.08;54.92;100557.00;4999303;28;45580;-68
2022/01/05 03:19:17;;;;;;;;;4.00;4.00;;;;;7.10;54.69;100573.56;5002924;28;45359;-68
2022/01/05 03:21:42;;;;;;;;;1.00;1.00;;;;;7.06;54.47;100559.75;4995704;28;46724;-68
2022/01/05 03:24:08;;;;;;;;;1.67;1.00;;;;;7.03;54.43;100567.13;4979362;28;45388;-68
2022/01/05 03:26:33;;;;;;;;;2.00;2.00;;;;;6.94;54.76;100566.88;4979438;28;45701;-68
2022/01/05 03:28:58;;;;;;;;;2.67;2.33;;;;;6.92;55.02;100555.59;4997392;28;45252;-68
2022/01/05 03:31:24;;;;;;;;;2.33;1.67;;;;;6.93;54.23;100557.28;4995718;28;48283;-68
2022/01/05 03:33:50;;;;;;;;;3.00;3.00;;;;;7.06;54.74;100575.63;4979772;28;45310;-68
2022/01/05 03:36:15;;;;;;;;;3.67;2.00;;;;;7.11;54.59;100583.19;4996944;28;45236;-69
2022/01/05 03:38:41;;;;;;;;;4.00;3.00;;;;;7.03;54.85;100572.41;4997187;28;45263;-68
2022/01/05 03:41:06;;;;;;;;;1.33;1.00;;;;;7.05;54.79;100591.63;4979414;28;48472;-69
2022/01/05 03:43:32;;;;;;;;;2.00;2.00;;;;;6.92;54.52;100578.53;4995510;28;45338;-69
2022/01/05 03:45:57;;;;;;;;;1.00;1.00;;;;;7.01;55.12;100601.59;4997188;28;45417;-68
2022/01/05 03:48:23;;;;;;;;;5.33;3.33;;;;;6.89;55.10;100582.28;5006040;28;45607;-68
2022/01/05 03:50:49;;;;;;;;;3.00;1.00;;;;;7.01;54.26;100615.66;5016711;28;45440;-67
2022/01/05 03:53:15;;;;;;;;;3.00;1.00;;;;;6.96;55.00;100612.53;5016366;28;45377;-69
2022/01/05 03:55:42;;;;;;;;;2.00;2.00;;;;;7.01;54.54;100617.47;5015316;28;45375;-68
2022/01/05 03:58:08;;;;;;;;;2.00;1.00;;;;;7.03;54.86;100630.56;5016959;28;45619;-68
2022/01/05 04:00:37;;;;;;;;;2.00;2.00;;;;;7.00;54.40;100619.25;5016381;28;45735;-67
2022/01/05 04:03:03;;;;;;;;;3.00;1.67;;;;;6.91;54.96;100606.78;5016331;28;45497;-67
2022/01/05 04:05:28;;;;;;;;;5.67;2.33;;;;;6.97;54.55;100616.00;5016544;28;45509;-67
2022/01/05 04:07:55;;;;;;;;;1.33;1.00;;;;;6.88;54.89;100601.75;4998585;28;45401;-68
2022/01/05 04:10:20;;;;;;;;;3.00;3.00;;;;;7.00;54.92;100616.59;5016007;28;45807;-69
2022/01/05 04:12:47;;;;;;;;;2.67;1.67;;;;;6.87;54.82;100596.59;5015863;28;45410;-68
2022/01/05 04:15:13;;;;;;;;;2.33;1.00;;;;;6.88;54.73;100595.63;5000868;28;45346;-67
2022/01/05 04:17:38;;;;;;;;;3.00;1.33;;;;;7.05;55.19;100628.63;5018905;28;45375;-68
2022/01/05 04:20:04;;;;;;;;;1.00;1.00;;;;;6.96;54.53;100638.13;5019634;28;45312;-68
2022/01/05 04:22:30;;;;;;;;;2.00;2.00;;;;;6.79;54.83;100626.25;5019408;28;45568;-68
2022/01/05 04:24:55;;;;;;;;;2.67;1.33;;;;;6.91;55.16;100643.78;5019618;28;45230;-67
2022/01/05 04:27:21;;;;;;;;;2.67;2.00;;;;;6.86;55.17;100626.63;5019737;28;45226;-69
2022/01/05 04:29:47;;;;;;;;;4.00;3.00;;;;;6.75;54.97;100614.25;5001423;28;48210;-69
2022/01/05 04:32:12;;;;;;;;;5.00;2.33;;;;;6.92;54.72;100650.75;5019303;28;45329;-68
2022/01/05 04:34:38;;;;;;;;;3.00;3.00;;;;;6.92;55.25;100645.47;5019066;28;45257;-70
2022/01/05 04:37:05;;;;;;;;;3.00;1.33;;;;;6.77;54.59;100619.41;5019465;28;45479;-69
2022/01/05 04:39:30;;;;;;;;;1.00;1.00;;;;;6.82;55.22;100617.25;5001139;28;46470;-68
2022/01/05 04:41:56;;;;;;;;;1.33;1.00;;;;;6.95;54.95;100639.91;5018972;28;45342;-68
2022/01/05 04:44:21;;;;;;;;;2.00;1.00;;;;;6.95;54.62;100654.94;5019806;28;45256;-68
2022/01/05 04:46:46;;;;;;;;;1.00;1.00;;;;;6.92;55.08;100644.63;5019616;28;45440;-69
2022/01/05 04:49:12;;;;;;;;;1.33;1.33;;;;;6.59;54.74;100611.97;5001326;28;46594;-69
2022/01/05 04:51:37;;;;;;;;;3.00;2.00;;;;;6.86;55.41;100660.97;5018832;28;45438;-69
2022/01/05 04:54:03;;;;;;;;;1.67;1.67;;;;;6.84;55.50;100663.75;5019080;28;45436;-69
2022/01/05 04:56:29;;;;;;;;;1.00;1.00;;;;;6.84;55.32;100669.03;5019304;28;45391;-68
2022/01/05 04:58:56;;;;;;;;;3.67;2.33;;;;;6.81;55.10;100668.41;5017667;28;47174;-69
2022/01/05 05:01:22;;;;;;;;;2.00;2.00;;;;;6.78;55.82;100673.94;5000590;28;45354;-68
2022/01/05 05:03:48;;;;;;;;;5.00;4.00;;;;;6.75;54.98;100669.72;5018984;28;45592;-68
2022/01/05 05:06:13;;;;;;;;;1.67;1.67;;;;;6.76;55.18;100674.06;5019022;28;45329;-68
2022/01/05 05:08:39;;;;;;;;;3.67;3.00;;;;;6.72;55.62;100672.63;5018458;28;45433;-67
2022/01/05 05:11:04;;;;;;;;;2.67;1.00;;;;;6.74;56.06;100678.63;5018857;28;45424;-69
2022/01/05 05:13:29;;;;;;;;;1.67;1.67;;;;;6.35;55.97;100617.41;5018745;28;45309;-69
2022/01/05 05:15:55;;;;;;;;;3.67;3.00;;;;;6.67;55.48;100677.44;5018548;28;45417;-67
2022/01/05 05:18:20;;;;;;;;;3.00;3.00;;;;;6.70;55.62;100693.03;5007665;28;45579;-68
2022/01/05 05:20:45;;;;;;;;;3.00;2.67;;;;;6.71;56.34;100690.28;4997128;28;45476;-67
2022/01/05 05:23:11;;;;;;;;;3.00;2.00;;;;;6.70;55.68;100685.97;4998811;28;45847;-68
2022/01/05 05:25:36;;;;;;;;;2.67;2.67;;;;;6.61;56.07;100680.56;4998695;28;45390;-67
2022/01/05 05:28:01;;;;;;;;;2.00;2.00;;;;;6.52;55.84;100679.47;4998424;28;46294;-68
2022/01/05 05:30:27;;;;;;;;;2.33;2.33;;;;;6.62;55.78;100691.00;4998542;28;45596;-68
2022/01/05 05:32:55;;;;;;;;;5.00;3.67;;;;;6.71;55.88;100700.84;4980461;28;45299;-68
2022/01/05 05:35:21;;;;;;;;;4.50;1.50;;;;;6.71;55.95;100700.84;4998206;28;45610;-68
2022/01/05 05:37:46;;;;;;;;;6.33;3.33;;;;;6.70;56.19;100690.41;4996664;28;46680;-68
2022/01/05 05:40:12;;;;;;;;;2.00;2.00;;;;;6.65;56.30;100700.50;4998530;28;45248;-68
2022/01/05 05:42:38;;;;;;;;;2.67;1.67;;;;;6.68;55.92;100718.75;4998808;28;46118;-68
2022/01/05 05:45:04;;;;;;;;;3.67;3.00;;;;;6.33;56.01;100639.59;4998735;28;45343;-67
2022/01/05 05:47:30;;;;;;;;;5.33;5.33;;;;;6.63;55.71;100707.69;5003981;28;45512;-68
2022/01/05 05:49:55;;;;;;;;;4.00;3.00;;;;;6.70;56.23;100735.31;5018104;28;45381;-68
2022/01/05 05:52:20;;;;;;;;;3.00;3.00;;;;;6.69;56.55;100739.75;5017971;28;45322;-69
2022/01/05 05:54:48;;;;;;;;;1.67;1.00;;;;;6.63;55.86;100729.69;5004621;28;45556;-69
2022/01/05 05:57:14;;;;;;;;;1.00;1.00;;;;;6.38;56.40;100687.59;4998168;28;46769;-69
2022/01/05 05:59:39;;;;;;;;;3.00;1.67;;;;;6.68;56.69;100738.06;4997866;28;45379;-67
2022/01/05 06:02:04;;;;;;;;;1.00;1.00;;;;;6.67;56.55;100741.69;4996855;28;45443;-68
2022/01/05 06:04:30;;;;;;;;;4.00;1.67;;;;;6.57;55.93;100735.41;4998176;28;45238;-69
2022/01/05 06:06:55;;;;;;;;;1.00;1.00;;;;;6.63;56.94;100744.69;5010924;28;46297;-68
2022/01/05 06:09:21;;;;;;;;;1.67;1.00;;;;;6.61;56.49;100739.53;5017433;28;45466;-69
2022/01/05 06:11:46;;;;;;;;;2.33;1.00;;;;;6.59;56.55;100743.22;5003565;28;45467;-69
2022/01/05 06:14:11;;;;;;;;;4.67;2.00;;;;;6.66;56.56;100745.28;4997990;28;45271;-70
2022/01/05 06:16:37;;;;;;;;;2.00;1.00;;;;;6.58;56.73;100725.69;4997696;28;45859;-68
2022/01/05 06:19:02;;;;;;;;;3.00;2.00;;;;;6.54;56.68;100735.66;4998123;28;45469;-69
2022/01/05 06:21:28;;;;;;;;;1.00;1.00;;;;;6.50;57.24;100734.22;5017276;28;45250;-68
2022/01/05 06:23:54;;;;;;;;;1.00;1.00;;;;;6.60;56.78;100750.19;5017588;28;45468;-69
2022/01/05 06:26:21;;;;;;;;;3.67;1.00;;;;;6.27;56.68;100701.66;5017190;28;46749;-69
2022/01/05 06:28:47;;;;;;;;;3.00;2.00;;;;;6.63;57.43;100764.03;4999456;28;45430;-69
2022/01/05 06:31:12;;;;;;;;;3.00;3.00;;;;;6.65;57.43;100766.53;5017732;28;45318;-68
2022/01/05 06:33:38;;;;;;;;;3.00;3.00;;;;;6.67;57.00;100761.97;5017494;28;45514;-68
2022/01/05 06:36:03;;;;;;;;;2.67;1.00;;;;;6.66;57.25;100761.13;5017075;28;46503;-68
2022/01/05 06:38:29;;;;;;;;;2.67;1.33;;;;;6.62;57.92;100764.97;5016537;28;45246;-69
2022/01/05 06:40:54;;;;;;;;;3.33;3.33;;;;;6.67;56.92;100780.47;4999279;28;45454;-68
2022/01/05 06:43:19;;;;;;;;;2.00;2.00;;;;;6.71;57.64;100776.63;5015920;28;45284;-70
2022/01/05 06:45:45;;;;;;;;;6.67;5.00;;;;;6.67;57.35;100783.94;5018279;28;45757;-69
2022/01/05 06:48:10;;;;;;;;;3.00;3.00;;;;;6.17;57.33;100700.66;5026316;28;45678;-69
2022/01/05 06:50:36;;;;;;;;;2.33;1.33;;;;;6.49;57.43;100768.66;5016088;28;47062;-70
2022/01/05 06:53:02;;;;;;;;;4.00;4.00;;;;;6.69;57.47;100797.03;5012443;28;45430;-70
2022/01/05 06:55:27;;;;;;;;;4.67;3.00;;;;;6.71;57.23;100800.41;5019003;28;45840;-69
2022/01/05 06:57:53;;;;;;;;;2.67;2.00;;;;;6.71;57.86;100797.75;4998576;28;45421;-68
2022/01/05 07:00:21;;;;;;;;;2.67;2.67;;;;;6.74;57.69;100812.53;5023763;28;45492;-69
2022/01/05 07:02:46;;;;;;;;;1.00;1.00;;;;;6.69;57.51;100802.31;5024205;28;45578;-70
2022/01/05 07:05:12;;;;;;;;;6.67;3.00;;;;;6.63;57.30;100797.53;5028749;28;47656;-69
2022/01/05 07:07:38;;;;;;;;;2.33;2.33;;;;;6.60;58.58;100801.22;5022203;28;45508;-71
2022/01/05 07:10:07;;;;;;;;;5.67;2.00;;;;;6.16;57.87;100738.56;5024786;28;47056;-70
2022/01/05 07:12:34;;;;;;;;;5.33;3.67;;;;;6.63;57.54;100818.66;5026794;28;45587;-68
2022/01/05 07:15:00;;;;;;;;;2.00;2.00;;;;;6.01;58.28;100718.63;4998503;28;47021;-70
2022/01/05 07:17:25;;;;;;;;;1.67;1.67;;;;;6.60;58.35;100803.00;5016158;28;45327;-68
2022/01/05 07:19:51;;;;;;;;;2.33;2.33;;;;;6.04;58.18;100731.59;5016570;28;45473;-68
2022/01/05 07:22:16;;;;;;;;;1.00;1.00;;;;;6.46;57.90;100795.31;5015613;28;45262;-69
2022/01/05 07:24:42;;;;;;;;;3.00;2.67;;;;;6.56;57.54;100827.97;5016355;28;45637;-69
2022/01/05 07:27:07;;;;;;;;;1.67;1.67;;;;;6.55;57.99;100836.88;5016966;28;45403;-71
2022/01/05 07:29:33;;;;;;;;;4.67;2.00;;;;;6.52;58.46;100831.81;5016910;28;45464;-70
2022/01/05 07:31:58;;;;;;;;;3.00;3.00;;;;;6.53;58.53;100833.50;4999237;28;45519;-72
2022/01/05 07:34:24;;;;;;;;;4.00;1.00;;;;;6.13;58.98;100783.69;5016426;28;46742;-69
2022/01/05 07:36:49;;;;;;;;;5.67;1.67;;;;;6.46;58.50;100842.84;5016833;28;45567;-69
2022/01/05 07:39:15;;;;;;;;;2.00;2.00;;;;;6.46;58.27;100842.84;5016770;28;45431;-71
2022/01/05 07:41:40;;;;;;;;;2.00;2.00;;;;;6.41;58.57;100848.50;5015310;28;45624;-69
2022/01/05 07:44:09;;;;;;;;;5.00;3.33;;;;;6.40;59.12;100855.53;5006565;28;47419;-71
2022/01/05 07:46:35;;;;;;;;;0.33;0.33;;;;;6.33;59.45;100849.03;5006912;28;46129;-68
2022/01/05 07:49:02;;;;;;;;;2.00;2.00;;;;;6.19;58.93;100825.44;5006086;28;45844;-69
2022/01/05 07:51:29;;;;;;;;;2.00;1.00;;;;;6.45;59.28;100867.59;5023946;28;45627;-68
2022/01/05 07:53:54;;;;;;;;;8.33;3.00;;;;;6.49;59.10;100872.50;5039060;28;46344;-69
2022/01/05 07:56:20;;;;;;;;;1.67;1.67;;;;;6.35;59.18;100854.19;5025972;28;45586;-69
2022/01/05 07:58:45;;;;;;;;;1.33;1.33;;;;;6.24;58.91;100844.47;5010304;28;45349;-68
2022/01/05 08:01:11;;;;;;;;;2.33;2.33;;;;;5.99;58.75;100794.41;5015952;28;45423;-71
2022/01/05 08:03:37;;;;;;;;;4.00;4.00;;;;;6.46;59.96;100869.25;5027910;28;45632;-69
2022/01/05 08:06:04;;;;;;;;;4.67;3.00;;;;;6.57;59.42;100871.94;5022261;28;45628;-69
2022/01/05 08:08:29;;;;;;;;;6.33;3.67;;;;;6.48;59.13;100862.91;5032269;28;45377;-68
2022/01/05 08:10:56;;;;;;;;;5.33;4.67;;;;;6.63;59.38;100890.81;5029788;28;45348;-69
2022/01/05 08:13:22;;;;;;;;;3.00;3.00;;;;;6.34;59.57;100852.53;5021259;28;48972;-68
2022/01/05 08:15:48;;;;;;;;;5.67;3.00;;;;;5.82;59.34;100766.63;5039001;28;45335;-69
2022/01/05 08:18:13;;;;;;;;;4.67;2.00;;;;;6.48;58.50;100875.28;5017549;28;45542;-69
2022/01/05 08:20:39;;;;;;;;;4.67;3.00;;;;;6.65;58.41;100903.91;5019163;28;45403;-70
2022/01/05 08:23:05;;;;;;;;;6.33;4.33;;;;;6.65;59.07;100915.31;5018848;28;45990;-69
2022/01/05 08:25:30;;;;;;;;;5.00;4.00;;;;;6.70;59.13;100912.31;5017783;28;45792;-69
2022/01/05 08:27:56;;;;;;;;;1.00;1.00;;;;;6.70;58.69;100915.81;5034137;28;45357;-70
2022/01/05 08:30:24;;;;;;;;;4.00;3.00;;;;;6.56;58.76;100901.94;5019343;28;45348;-69
2022/01/05 08:32:51;;;;;;;;;3.67;2.00;;;;;6.60;59.41;100903.38;5011693;28;45710;-69
2022/01/05 08:35:19;;;;;;;;;3.67;3.33;;;;;6.58;59.06;100916.72;5004770;28;45483;-70
2022/01/05 08:37:46;;;;;;;;;2.67;1.33;;;;;6.58;58.88;100915.88;5033734;28;45414;-68
2022/01/05 08:40:14;;;;;;;;;3.33;3.33;;;;;6.40;58.94;100883.75;5002323;28;45242;-68
2022/01/05 08:42:40;;;;;;;;;2.00;2.00;;;;;6.51;59.62;100904.09;5008285;28;47882;-69
2022/01/05 08:45:06;;;;;;;;;9.00;8.00;;;;;6.62;59.16;100907.63;5030564;28;45493;-69
2022/01/05 08:47:32;;;;;;;;;6.00;2.67;;;;;6.66;59.22;100900.31;5015741;28;45436;-69
2022/01/05 08:49:58;;;;;;;;;5.33;3.00;;;;;6.88;59.53;100918.88;5019184;28;45510;-69
2022/01/05 08:52:23;;;;;;;;;3.00;3.00;;;;;5.63;58.53;100701.19;5018895;28;45570;-70
2022/01/05 08:54:49;;;;;;;;;5.67;5.00;;;;;6.79;58.46;100885.19;5017070;28;45222;-70
2022/01/05 08:57:15;;;;;;;;;2.00;1.00;;;;;7.18;58.00;100928.06;5018360;28;45548;-69
2022/01/05 08:59:40;;;;;;;;;3.67;2.00;;;;;6.86;57.32;100877.66;5032041;28;45495;-70
2022/01/05 09:02:07;;;;;;;;;5.67;3.00;;;;;7.23;57.75;100925.94;5003837;28;48542;-70
2022/01/05 09:04:33;;;;;;;;;2.67;2.67;;;;;6.95;57.73;100871.66;5013763;28;45320;-69
2022/01/05 09:06:59;;;;;;;;;5.00;4.00;;;;;7.44;57.83;100936.66;5015384;28;45581;-69
2022/01/05 09:09:25;;;;;;;;;4.33;4.33;;;;;7.50;57.25;100939.66;5017008;28;45442;-70
2022/01/05 09:11:51;;;;;;;;;3.00;3.00;;;;;7.47;56.92;100915.25;5014138;28;45456;-69
2022/01/05 09:14:22;;;;;;;;;7.00;4.67;;;;;7.68;56.60;100925.94;5006491;28;45875;-72
2022/01/05 09:16:48;;;;;;;;;5.00;1.67;;;;;7.80;56.54;100938.19;5007142;28;45776;-67
2022/01/05 09:19:16;;;;;;;;;2.33;2.33;;;;;7.74;56.08;100949.28;5006842;28;45452;-68
2022/01/05 09:21:42;;;;;;;;;5.33;1.67;;;;;7.82;56.36;100952.16;5011670;28;45757;-75
2022/01/05 09:24:08;;;;;;;;;2.33;2.33;;;;;7.79;55.75;100941.81;5013373;28;45341;-69
2022/01/05 09:26:33;;;;;;;;;1.00;1.00;;;;;7.94;56.04;100949.38;5011994;28;45192;-69
2022/01/05 09:28:58;;;;;;;;;4.00;4.00;;;;;7.96;55.42;100943.13;5015186;28;45366;-68
2022/01/05 09:31:24;;;;;;;;;8.00;6.00;;;;;8.12;55.38;100949.72;5016861;28;46296;-69
2022/01/05 09:33:49;;;;;;;;;3.00;3.00;;;;;8.10;55.69;100935.75;4998441;28;45441;-69
2022/01/05 09:36:19;;;;;;;;;5.67;4.00;;;;;8.23;55.47;100955.00;4992936;28;45535;-69
2022/01/05 09:44:16;;;;;;;;;2.67;2.67;;;;;8.42;54.84;100977.41;5006387;28;45452;-70
2022/01/05 09:46:50;;;;;;;;;5.33;5.33;;;;;8.43;54.97;100982.56;5004515;28;45420;-69
2022/01/05 09:49:24;;;;;;;;;2.00;2.00;;;;;8.38;54.23;100987.38;4995857;28;45558;-71
2022/01/05 09:51:51;;;;;;;;;3.00;3.00;;;;;7.66;54.53;100877.59;4999045;28;48350;-69
2022/01/05 09:54:17;;;;;;;;;3.00;2.00;;;;;8.26;55.05;100995.44;5016987;28;45325;-69
2022/01/05 09:56:45;;;;;;;;;3.33;3.00;;;;;8.21;54.92;101007.25;4996370;28;45555;-69
2022/01/05 09:59:14;;;;;;;;;4.00;3.00;;;;;7.72;55.43;100930.03;5008859;28;45585;-70
2022/01/05 10:01:40;;;;;;;;;3.33;2.00;;;;;8.18;54.93;101011.94;5011642;28;48198;-70
2022/01/05 10:04:06;;;;;;;;;3.00;3.00;;;;;7.96;55.18;100996.06;4994113;28;45485;-69
2022/01/05 10:06:34;;;;;;;;;2.67;2.67;;;;;7.62;55.53;100930.75;5007027;28;45504;-69
2022/01/05 10:09:00;;;;;;;;;4.00;2.67;;;;;8.13;54.93;101007.00;5010154;28;45614;-67
2022/01/05 10:11:25;;;;;;;;;3.00;3.00;;;;;8.16;55.61;101019.16;5007506;28;47448;-70
2022/01/05 10:13:57;;;;;;;;;3.67;3.00;;;;;7.76;55.39;100947.34;5007995;28;45451;-69
2022/01/05 10:16:24;;;;;;;;;6.33;5.00;;;;;7.98;55.73;100989.69;5008537;28;45503;-68
2022/01/05 10:18:49;;;;;;;;;2.00;2.00;;;;;8.09;55.17;101005.56;5014028;28;45635;-68
2022/01/05 10:21:15;;;;;;;;;4.00;3.00;;;;;8.17;55.37;101012.91;5015662;28;46112;-69
2022/01/05 10:23:45;;;;;;;;;5.67;4.00;;;;;8.15;55.73;101030.72;5015213;28;45450;-68
2022/01/05 10:26:33;;;;;;;;;5.67;3.00;;;;;8.30;54.96;101031.31;5015412;28;45526;-68
2022/01/05 10:29:36;;;;;;;;;5.67;4.00;;;;;8.32;54.92;101018.78;5017511;28;45483;-68
2022/01/05 10:32:07;;;;;;;;;2.67;2.33;;;;;7.66;54.71;100920.78;5014852;28;46284;-68
2022/01/05 10:34:34;;;;;;;;;3.67;3.00;;;;;8.06;54.63;100997.88;5012111;28;45417;-68
2022/01/05 10:37:05;;;;;;;;;8.67;5.33;;;;;8.36;54.53;101026.38;4990142;28;45569;-70
2022/01/05 10:39:38;;;;;;;;;2.00;2.00;;;;;8.38;53.94;101034.22;5009604;28;45545;-68
2022/01/05 10:42:13;;;;;;;;;3.67;2.00;;;;;8.30;54.27;101026.00;5004437;28;46160;-68
2022/01/05 10:45:03;;;;;;;;;2.67;2.67;;;;;7.88;54.61;100971.03;5008434;28;46363;-69
2022/01/05 10:47:29;;;;;;;;;3.00;3.00;;;;;8.36;54.45;101046.75;5012950;28;45381;-71
2022/01/05 10:49:55;;;;;;;;;2.33;2.33;;;;;8.41;54.60;101044.56;5009005;28;46444;-72
2022/01/05 10:52:29;;;;;;;;;5.33;4.67;;;;;8.41;54.22;101041.91;4993068;28;45536;-66
2022/01/05 10:55:13;;;;;;;;;1.00;1.00;;;;;8.49;54.31;101061.56;5006847;28;45912;-69
2022/01/05 10:57:59;;;;;;;;;4.00;2.67;;;;;8.54;54.01;101055.88;4991173;28;45568;-66
2022/01/05 11:00:31;;;;;;;;;4.00;4.00;;;;;8.61;54.12;101050.91;5008357;28;45612;-69
2022/01/05 11:02:56;;;;;;;;;4.67;3.67;;;;;8.13;54.20;100975.22;5004462;28;45828;-67
2022/01/05 11:05:22;;;;;;;;;2.33;2.00;;;;;8.59;54.25;101047.53;5009542;28;45484;-68
2022/01/05 11:07:47;;;;;;;;;3.00;2.00;;;;;8.44;54.33;101024.00;4984272;28;45378;-68
2022/01/05 11:10:16;;;;;;;;;3.00;2.00;;;;;8.56;53.86;101053.94;5016608;28;45373;-67
2022/01/05 11:12:45;;;;;;;;;4.33;3.33;;;;;8.54;54.02;101051.41;5022185;28;45502;-68
2022/01/05 11:15:18;;;;;;;;;4.00;4.00;;;;;7.09;54.26;100804.53;5015966;28;45567;-68
2022/01/05 11:18:11;;;;;;;;;3.00;3.00;;;;;8.57;54.50;101046.84;5015871;28;45507;-69
2022/01/05 11:20:39;;;;;;;;;5.00;5.00;;;;;8.61;54.33;101051.78;5016027;28;45517;-68
2022/01/05 11:23:06;;;;;;;;;3.00;3.00;;;;;8.51;53.71;101056.13;5016075;28;47615;-70
2022/01/05 11:25:36;;;;;;;;;3.00;3.00;;;;;8.39;53.38;101054.44;5021088;28;45439;-67
2022/01/05 11:28:03;;;;;;;;;6.67;4.33;;;;;8.36;53.63;101057.34;5020535;28;45432;-69
2022/01/05 11:30:28;;;;;;;;;2.33;2.33;;;;;8.41;53.98;101061.34;4987702;28;45324;-68
2022/01/05 11:32:55;;;;;;;;;4.67;3.67;;;;;8.36;53.65;101031.69;5002058;28;45956;-69
2022/01/05 11:35:20;;;;;;;;;9.67;8.00;;;;;8.39;53.20;101043.84;5015228;28;45446;-68
2022/01/05 11:37:46;;;;;;;;;5.33;3.33;;;;;8.44;53.61;101057.59;4999716;28;45453;-76